sensor_id;sensor_type;location;lat;lon;timestamp;pressure;altitude;pressure_sealevel;temperature;humidity
26563;BME280;14217;50.986;5.826;2023-04-16T00:00:44;101487.09;;;19.46;39.52
26563;BME280;14217;50.986;5.826;2023-04-16T00:05:48;101498.63;;;19.45;39.85
26563;BME280;14217;50.986;5.826;2023-04-16T00:10:52;101490.66;;;19.45;39.55
26563;BME280;14217;50.986;5.826;2023-04-16T00:15:54;101496.03;;;19.43;39.59
26563;BME280;14217;50.986;5.826;2023-04-16T00:20:56;101500.38;;;19.46;39.88
26563;BME280;14217;50.986;5.826;2023-04-16T00:25:58;101494.31;;;19.42;39.99
26563;BME280;14217;50.986;5.826;2023-04-16T00:31:00;101487.09;;;19.46;39.94
26563;BME280;14217;50.986;5.826;2023-04-16T00:36:03;101492.41;;;19.46;39.71
26563;BME280;14217;50.986;5.826;2023-04-16T00:41:05;101489.03;;;19.41;39.72
26563;BME280;14217;50.986;5.826;2023-04-16T00:46:07;101487.94;;;19.46;39.73
26563;BME280;14217;50.986;5.826;2023-04-16T00:51:10;101489.84;;;19.43;39.88
26563;BME280;14217;50.986;5.826;2023-04-16T00:56:12;101488.19;;;19.40;39.82
26563;BME280;14217;50.986;5.826;2023-04-16T01:01:14;101490.78;;;19.42;39.81
26563;BME280;14217;50.986;5.826;2023-04-16T01:06:17;101495.13;;;19.44;40.11
26563;BME280;14217;50.986;5.826;2023-04-16T01:11:19;101495.91;;;19.46;39.80
26563;BME280;14217;50.986;5.826;2023-04-16T01:16:22;101497.63;;;19.47;39.96
26563;BME280;14217;50.986;5.826;2023-04-16T01:21:24;101487.09;;;19.46;39.91
26563;BME280;14217;50.986;5.826;2023-04-16T01:26:27;101486.28;;;19.44;39.94
26563;BME280;14217;50.986;5.826;2023-04-16T01:31:29;101490.69;;;19.43;40.08
26563;BME280;14217;50.986;5.826;2023-04-16T01:36:31;101497.63;;;19.47;39.96
26563;BME280;14217;50.986;5.826;2023-04-16T01:41:33;101493.44;;;19.42;40.22
26563;BME280;14217;50.986;5.826;2023-04-16T01:46:35;101494.41;;;19.39;40.24
26563;BME280;14217;50.986;5.826;2023-04-16T01:51:38;101494.47;;;19.38;40.13
26563;BME280;14217;50.986;5.826;2023-04-16T01:56:40;101494.34;;;19.41;40.31
26563;BME280;14217;50.986;5.826;2023-04-16T02:01:42;101493.44;;;19.42;40.24
26563;BME280;14217;50.986;5.826;2023-04-16T02:06:44;101499.66;;;19.41;40.31
26563;BME280;14217;50.986;5.826;2023-04-16T02:11:46;101489.03;;;19.41;40.32
26563;BME280;14217;50.986;5.826;2023-04-16T02:16:48;101491.69;;;19.41;40.03
26563;BME280;14217;50.986;5.826;2023-04-16T02:21:51;101491.69;;;19.41;40.19
26563;BME280;14217;50.986;5.826;2023-04-16T02:26:54;101491.59;;;19.44;40.37
26563;BME280;14217;50.986;5.826;2023-04-16T02:31:56;101477.53;;;19.40;40.22
26563;BME280;14217;50.986;5.826;2023-04-16T02:36:58;101489.03;;;19.41;40.36
26563;BME280;14217;50.986;5.826;2023-04-16T02:42:00;101495.38;;;19.37;40.30
26563;BME280;14217;50.986;5.826;2023-04-16T02:47:03;101489.03;;;19.41;40.38
26563;BME280;14217;50.986;5.826;2023-04-16T02:52:05;101493.59;;;19.37;40.28
26563;BME280;14217;50.986;5.826;2023-04-16T02:57:07;101487.31;;;19.40;40.19
26563;BME280;14217;50.986;5.826;2023-04-16T03:02:09;101493.53;;;19.39;40.49
26563;BME280;14217;50.986;5.826;2023-04-16T03:07:11;101499.84;;;19.36;40.46
26563;BME280;14217;50.986;5.826;2023-04-16T03:12:13;101497.94;;;19.40;40.49
26563;BME280;14217;50.986;5.826;2023-04-16T03:17:15;101502.38;;;19.39;40.35
26563;BME280;14217;50.986;5.826;2023-04-16T03:22:17;101510.25;;;19.42;40.40
26563;BME280;14217;50.986;5.826;2023-04-16T03:27:19;101507.63;;;19.41;40.37
26563;BME280;14217;50.986;5.826;2023-04-16T03:32:21;101516.41;;;19.43;40.51
26563;BME280;14217;50.986;5.826;2023-04-16T03:37:23;101509.44;;;19.40;40.54
26563;BME280;14217;50.986;5.826;2023-04-16T03:42:25;101517.50;;;19.37;40.37
26563;BME280;14217;50.986;5.826;2023-04-16T03:47:27;101512.03;;;19.42;40.57
26563;BME280;14217;50.986;5.826;2023-04-16T03:52:29;101505.97;;;19.38;40.42
26563;BME280;14217;50.986;5.826;2023-04-16T03:57:31;101512.19;;;19.37;40.46
26563;BME280;14217;50.986;5.826;2023-04-16T04:02:36;101513.94;;;19.38;40.65
26563;BME280;14217;50.986;5.826;2023-04-16T04:07:39;101505.03;;;19.39;40.29
26563;BME280;14217;50.986;5.826;2023-04-16T04:12:41;101508.50;;;19.41;40.36
26563;BME280;14217;50.986;5.826;2023-04-16T04:17:43;101507.63;;;19.41;40.38
26563;BME280;14217;50.986;5.826;2023-04-16T04:22:45;101505.03;;;19.39;40.55
26563;BME280;14217;50.986;5.826;2023-04-16T04:27:47;101509.47;;;19.39;40.56
26563;BME280;14217;50.986;5.826;2023-04-16T04:32:50;101511.28;;;19.38;40.35
26563;BME280;14217;50.986;5.826;2023-04-16T04:37:52;101510.47;;;19.36;40.72
26563;BME280;14217;50.986;5.826;2023-04-16T04:42:54;101520.97;;;19.39;40.54
26563;BME280;14217;50.986;5.826;2023-04-16T04:47:56;101528.91;;;19.41;40.41
26563;BME280;14217;50.986;5.826;2023-04-16T04:52:58;101539.66;;;19.38;40.61
26563;BME280;14217;50.986;5.826;2023-04-16T04:58:02;101529.06;;;19.36;40.78
26563;BME280;14217;50.986;5.826;2023-04-16T05:03:07;101535.25;;;19.37;40.75
26563;BME280;14217;50.986;5.826;2023-04-16T05:08:10;101533.63;;;19.33;40.53
26563;BME280;14217;50.986;5.826;2023-04-16T05:13:12;101538.75;;;19.37;40.68
26563;BME280;14217;50.986;5.826;2023-04-16T05:18:14;101544.09;;;19.37;40.51
26563;BME280;14217;50.986;5.826;2023-04-16T05:23:16;101548.44;;;19.40;40.78
26563;BME280;14217;50.986;5.826;2023-04-16T05:28:18;101544.97;;;19.38;40.82
26563;BME280;14217;50.986;5.826;2023-04-16T05:33:20;101552.13;;;19.36;40.85
26563;BME280;14217;50.986;5.826;2023-04-16T05:38:22;101557.53;;;19.33;40.76
26563;BME280;14217;50.986;5.826;2023-04-16T05:43:24;101556.50;;;19.37;40.50
26563;BME280;14217;50.986;5.826;2023-04-16T05:48:26;101561.78;;;19.38;40.49
26563;BME280;14217;50.986;5.826;2023-04-16T05:53:28;101568.06;;;19.36;40.68
26563;BME280;14217;50.986;5.826;2023-04-16T05:58:30;101574.44;;;19.32;41.01
26563;BME280;14217;50.986;5.826;2023-04-16T06:03:32;101570.59;;;19.39;40.77
26563;BME280;14217;50.986;5.826;2023-04-16T06:08:34;101573.25;;;19.39;40.51
26563;BME280;14217;50.986;5.826;2023-04-16T06:13:38;101575.22;;;19.34;40.70
26563;BME280;14217;50.986;5.826;2023-04-16T06:18:40;101586.59;;;19.37;40.85
26563;BME280;14217;50.986;5.826;2023-04-16T06:23:42;101583.94;;;19.37;40.74
26563;BME280;14217;50.986;5.826;2023-04-16T06:28:44;101590.19;;;19.36;40.89
26563;BME280;14217;50.986;5.826;2023-04-16T06:33:46;101598.13;;;19.38;40.97
26563;BME280;14217;50.986;5.826;2023-04-16T06:38:48;101603.66;;;19.32;40.93
26563;BME280;14217;50.986;5.826;2023-04-16T06:43:50;101608.84;;;19.35;40.96
26563;BME280;14217;50.986;5.826;2023-04-16T06:48:52;101603.47;;;19.36;40.72
26563;BME280;14217;50.986;5.826;2023-04-16T06:53:54;101607.94;;;19.36;40.96
26563;BME280;14217;50.986;5.826;2023-04-16T06:58:56;101604.50;;;19.32;41.14
26563;BME280;14217;50.986;5.826;2023-04-16T07:03:59;101615.28;;;19.29;40.95
26563;BME280;14217;50.986;5.826;2023-04-16T07:09:02;101616.94;;;19.32;41.04
26563;BME280;14217;50.986;5.826;2023-04-16T07:14:04;101625.72;;;19.34;40.98
26563;BME280;14217;50.986;5.826;2023-04-16T07:19:06;101625.78;;;19.32;41.08
26563;BME280;14217;50.986;5.826;2023-04-16T07:24:11;101634.59;;;19.33;41.17
26563;BME280;14217;50.986;5.826;2023-04-16T07:29:13;101635.63;;;19.28;41.14
26563;BME280;14217;50.986;5.826;2023-04-16T07:34:15;101635.63;;;19.28;41.10
26563;BME280;14217;50.986;5.826;2023-04-16T07:39:17;101647.16;;;19.29;41.63
26563;BME280;14217;50.986;5.826;2023-04-16T07:44:19;101653.22;;;19.33;42.70
26563;BME280;14217;50.986;5.826;2023-04-16T07:49:21;101658.53;;;19.33;43.59
26563;BME280;14217;50.986;5.826;2023-04-16T07:54:23;101659.66;;;19.25;43.38
26563;BME280;14217;50.986;5.826;2023-04-16T07:59:28;101657.81;;;19.27;43.94
26563;BME280;14217;50.986;5.826;2023-04-16T08:04:30;101669.28;;;19.29;43.81
26563;BME280;14217;50.986;5.826;2023-04-16T08:09:33;101670.28;;;19.25;44.42
26563;BME280;14217;50.986;5.826;2023-04-16T08:14:37;101671.06;;;19.29;44.29
26563;BME280;14217;50.986;5.826;2023-04-16T08:19:39;101680.88;;;19.27;43.88
26563;BME280;14217;50.986;5.826;2023-04-16T08:24:41;101687.34;;;19.18;43.43
26563;BME280;14217;50.986;5.826;2023-04-16T08:29:43;101687.09;;;19.26;43.59
26563;BME280;14217;50.986;5.826;2023-04-16T08:34:45;101699.00;;;19.14;43.74
26563;BME280;14217;50.986;5.826;2023-04-16T08:39:48;101699.31;;;18.77;45.30
26563;BME280;14217;50.986;5.826;2023-04-16T08:44:52;101706.16;;;18.85;44.40
26563;BME280;14217;50.986;5.826;2023-04-16T08:50:02;101707.97;;;18.83;44.44
26563;BME280;14217;50.986;5.826;2023-04-16T08:55:12;101714.13;;;18.85;44.09
26563;BME280;14217;50.986;5.826;2023-04-16T09:00:18;101709.06;;;18.76;44.54
26563;BME280;14217;50.986;5.826;2023-04-16T09:05:21;101721.53;;;18.74;44.25
26563;BME280;14217;50.986;5.826;2023-04-16T09:10:26;101725.84;;;18.78;44.41
26563;BME280;14217;50.986;5.826;2023-04-16T09:15:28;101720.78;;;18.69;44.72
26563;BME280;14217;50.986;5.826;2023-04-16T09:20:33;101729.03;;;18.89;44.17
26563;BME280;14217;50.986;5.826;2023-04-16T09:25:35;101727.75;;;19.01;43.54
26563;BME280;14217;50.986;5.826;2023-04-16T09:30:39;101718.56;;;19.12;43.10
26563;BME280;14217;50.986;5.826;2023-04-16T09:35:46;101729.94;;;19.17;42.98
26563;BME280;14217;50.986;5.826;2023-04-16T09:41:04;101738.81;;;19.16;43.08
26563;BME280;14217;50.986;5.826;2023-04-16T09:46:09;101741.38;;;19.19;42.71
26563;BME280;14217;50.986;5.826;2023-04-16T09:51:12;101736.00;;;19.20;42.53
26563;BME280;14217;50.986;5.826;2023-04-16T09:56:14;101745.75;;;19.20;42.62
26563;BME280;14217;50.986;5.826;2023-04-16T10:01:17;101751.34;;;19.12;42.94
26563;BME280;14217;50.986;5.826;2023-04-16T10:06:21;101752.88;;;19.19;43.10
26563;BME280;14217;50.986;5.826;2023-04-16T10:11:24;101749.28;;;19.20;43.09
26563;BME280;14217;50.986;5.826;2023-04-16T10:16:28;101743.88;;;19.23;42.91
26563;BME280;14217;50.986;5.826;2023-04-16T10:21:30;101762.50;;;19.22;42.81
26563;BME280;14217;50.986;5.826;2023-04-16T10:26:35;101749.22;;;19.22;43.27
26563;BME280;14217;50.986;5.826;2023-04-16T10:31:38;101759.91;;;19.20;43.19
26563;BME280;14217;50.986;5.826;2023-04-16T10:36:41;101768.75;;;19.21;44.42
26563;BME280;14217;50.986;5.826;2023-04-16T10:41:43;101762.47;;;18.95;44.10
26563;BME280;14217;50.986;5.826;2023-04-16T10:46:46;101769.78;;;18.88;43.80
26563;BME280;14217;50.986;5.826;2023-04-16T10:51:57;101765.09;;;18.97;44.09
26563;BME280;14217;50.986;5.826;2023-04-16T10:57:02;101771.22;;;18.99;43.99
26563;BME280;14217;50.986;5.826;2023-04-16T11:02:07;101762.41;;;18.98;44.41
26563;BME280;14217;50.986;5.826;2023-04-16T11:12:35;101763.72;;;19.12;44.25
26563;BME280;14217;50.986;5.826;2023-04-16T11:17:46;101759.16;;;19.17;44.18
26563;BME280;14217;50.986;5.826;2023-04-16T11:22:49;101756.53;;;19.15;44.36
26563;BME280;14217;50.986;5.826;2023-04-16T11:27:52;101775.94;;;19.17;43.99
26563;BME280;14217;50.986;5.826;2023-04-16T11:32:54;101765.28;;;19.19;44.13
26563;BME280;14217;50.986;5.826;2023-04-16T11:37:57;101765.41;;;19.14;44.56
26563;BME280;14217;50.986;5.826;2023-04-16T11:43:13;101767.13;;;19.17;44.15
26563;BME280;14217;50.986;5.826;2023-04-16T11:48:15;101768.75;;;19.21;44.08
26563;BME280;14217;50.986;5.826;2023-04-16T11:53:18;101765.91;;;19.27;43.88
26563;BME280;14217;50.986;5.826;2023-04-16T11:58:20;101767.66;;;19.26;44.31
26563;BME280;14217;50.986;5.826;2023-04-16T12:03:39;101772.31;;;19.20;44.41
26563;BME280;14217;50.986;5.826;2023-04-16T12:08:45;101773.00;;;19.26;44.53
26563;BME280;14217;50.986;5.826;2023-04-16T12:14:09;101768.59;;;19.25;44.58
26563;BME280;14217;50.986;5.826;2023-04-16T12:19:12;101772.84;;;19.31;44.12
26563;BME280;14217;50.986;5.826;2023-04-16T12:24:16;101774.53;;;19.34;43.89
26563;BME280;14217;50.986;5.826;2023-04-16T12:29:25;101773.59;;;19.35;43.71
26563;BME280;14217;50.986;5.826;2023-04-16T12:34:28;101770.88;;;19.38;43.59
26563;BME280;14217;50.986;5.826;2023-04-16T12:39:49;101774.59;;;19.32;43.41
26563;BME280;14217;50.986;5.826;2023-04-16T12:44:51;101774.53;;;19.34;43.38
26563;BME280;14217;50.986;5.826;2023-04-16T12:49:55;101777.09;;;19.37;43.26
26563;BME280;14217;50.986;5.826;2023-04-16T12:54:58;101773.59;;;19.35;42.93
26563;BME280;14217;50.986;5.826;2023-04-16T13:00:00;101782.41;;;19.37;42.76
26563;BME280;14217;50.986;5.826;2023-04-16T13:05:02;101781.53;;;19.36;42.96
26563;BME280;14217;50.986;5.826;2023-04-16T13:10:05;101785.22;;;19.32;42.88
26563;BME280;14217;50.986;5.826;2023-04-16T13:15:08;101786.06;;;19.33;42.80
26563;BME280;14217;50.986;5.826;2023-04-16T13:20:10;101783.38;;;19.34;42.60
26563;BME280;14217;50.986;5.826;2023-04-16T13:25:12;101777.19;;;19.34;42.30
26563;BME280;14217;50.986;5.826;2023-04-16T13:30:14;101787.81;;;19.34;42.35
26563;BME280;14217;50.986;5.826;2023-04-16T13:35:16;101785.22;;;19.32;42.30
26563;BME280;14217;50.986;5.826;2023-04-16T13:40:19;101787.28;;;19.22;42.75
26563;BME280;14217;50.986;5.826;2023-04-16T13:45:21;101780.97;;;19.26;43.32
26563;BME280;14217;50.986;5.826;2023-04-16T13:50:23;101778.38;;;19.25;43.13
26563;BME280;14217;50.986;5.826;2023-04-16T13:55:26;101790.75;;;19.24;43.05
26563;BME280;14217;50.986;5.826;2023-04-16T14:00:28;101787.28;;;19.22;43.05
26563;BME280;14217;50.986;5.826;2023-04-16T14:05:30;101791.84;;;19.19;43.49
26563;BME280;14217;50.986;5.826;2023-04-16T14:10:32;101780.22;;;19.23;43.10
26563;BME280;14217;50.986;5.826;2023-04-16T14:15:34;101788.94;;;19.26;43.23
26563;BME280;14217;50.986;5.826;2023-04-16T14:20:36;101781.78;;;19.28;43.12
26563;BME280;14217;50.986;5.826;2023-04-16T14:25:40;101788.88;;;19.28;43.33
26563;BME280;14217;50.986;5.826;2023-04-16T14:30:42;101781.78;;;19.28;43.33
26563;BME280;14217;50.986;5.826;2023-04-16T14:35:45;101782.56;;;19.32;43.26
26563;BME280;14217;50.986;5.826;2023-04-16T14:40:47;101788.88;;;19.28;43.13
26563;BME280;14217;50.986;5.826;2023-04-16T14:45:49;101786.19;;;19.29;43.32
26563;BME280;14217;50.986;5.826;2023-04-16T14:50:52;101787.06;;;19.30;43.12
26563;BME280;14217;50.986;5.826;2023-04-16T14:55:54;101779.03;;;19.32;43.06
26563;BME280;14217;50.986;5.826;2023-04-16T15:00:59;101782.72;;;19.27;43.29
26563;BME280;14217;50.986;5.826;2023-04-16T15:06:02;101768.28;;;19.35;43.26
26563;BME280;14217;50.986;5.826;2023-04-16T15:11:04;101759.28;;;19.39;42.88
26563;BME280;14217;50.986;5.826;2023-04-16T15:16:06;101761.91;;;19.40;43.00
26563;BME280;14217;50.986;5.826;2023-04-16T15:21:08;101754.72;;;19.44;43.02
26563;BME280;14217;50.986;5.826;2023-04-16T15:26:13;101753.78;;;19.45;43.01
26563;BME280;14217;50.986;5.826;2023-04-16T15:31:15;101762.94;;;19.36;43.29
26563;BME280;14217;50.986;5.826;2023-04-16T15:36:17;101762.06;;;19.36;43.27
26563;BME280;14217;50.986;5.826;2023-04-16T15:41:19;101772.69;;;19.36;43.37
26563;BME280;14217;50.986;5.826;2023-04-16T15:46:21;101767.47;;;19.33;43.38
26563;BME280;14217;50.986;5.826;2023-04-16T15:51:23;101769.31;;;19.30;43.64
26563;BME280;14217;50.986;5.826;2023-04-16T15:56:25;101770.09;;;19.34;43.44
26563;BME280;14217;50.986;5.826;2023-04-16T16:01:28;101778.06;;;19.34;43.36
26563;BME280;14217;50.986;5.826;2023-04-16T16:06:30;101779.03;;;19.32;43.42
26563;BME280;14217;50.986;5.826;2023-04-16T16:11:32;101779.03;;;19.32;43.62
26563;BME280;14217;50.986;5.826;2023-04-16T16:16:34;101782.44;;;19.35;43.45
26563;BME280;14217;50.986;5.826;2023-04-16T16:21:37;101780.69;;;19.36;43.32
26563;BME280;14217;50.986;5.826;2023-04-16T16:26:39;101786.06;;;19.33;43.39
26563;BME280;14217;50.986;5.826;2023-04-16T16:31:41;101785.22;;;19.32;43.36
26563;BME280;14217;50.986;5.826;2023-04-16T16:36:46;101782.59;;;19.30;43.49
26563;BME280;14217;50.986;5.826;2023-04-16T16:41:49;101787.00;;;19.32;43.70
26563;BME280;14217;50.986;5.826;2023-04-16T16:46:53;101779.13;;;19.28;43.85
26563;BME280;14217;50.986;5.826;2023-04-16T16:51:55;101787.06;;;19.30;43.79
26563;BME280;14217;50.986;5.826;2023-04-16T16:56:58;101786.06;;;19.33;43.51
26563;BME280;14217;50.986;5.826;2023-04-16T17:02:01;101793.22;;;19.30;43.58
26563;BME280;14217;50.986;5.826;2023-04-16T17:07:03;101793.19;;;19.32;43.67
26563;BME280;14217;50.986;5.826;2023-04-16T17:12:06;101788.09;;;19.24;43.95
26563;BME280;14217;50.986;5.826;2023-04-16T17:17:08;101803.03;;;19.28;43.78
26563;BME280;14217;50.986;5.826;2023-04-16T17:22:10;101801.34;;;19.26;43.64
26563;BME280;14217;50.986;5.826;2023-04-16T17:27:12;101792.31;;;19.32;43.62
26563;BME280;14217;50.986;5.826;2023-04-16T17:32:14;101793.03;;;19.37;43.78
26563;BME280;14217;50.986;5.826;2023-04-16T17:37:17;101800.09;;;19.38;43.36
26563;BME280;14217;50.986;5.826;2023-04-16T17:42:19;101802.94;;;19.32;43.79
26563;BME280;14217;50.986;5.826;2023-04-16T17:47:21;101804.63;;;19.34;43.49
26563;BME280;14217;50.986;5.826;2023-04-16T17:52:23;101811.44;;;19.43;43.65
26563;BME280;14217;50.986;5.826;2023-04-16T17:57:28;101816.34;;;19.55;44.72
26563;BME280;14217;50.986;5.826;2023-04-16T18:02:30;101811.06;;;19.54;46.05
26563;BME280;14217;50.986;5.826;2023-04-16T18:07:33;101826.94;;;19.57;45.61
26563;BME280;14217;50.986;5.826;2023-04-16T18:12:36;101833.19;;;19.54;45.68
26563;BME280;14217;50.986;5.826;2023-04-16T18:17:38;101826.25;;;19.50;45.30
26563;BME280;14217;50.986;5.826;2023-04-16T18:22:41;101822.19;;;19.40;45.38
26563;BME280;14217;50.986;5.826;2023-04-16T18:27:43;101830.28;;;19.35;45.32
26563;BME280;14217;50.986;5.826;2023-04-16T18:32:46;101826.75;;;19.35;45.42
26563;BME280;14217;50.986;5.826;2023-04-16T18:38:08;101825.91;;;19.34;45.02
26563;BME280;14217;50.986;5.826;2023-04-16T18:43:10;101831.28;;;19.31;44.97
26563;BME280;14217;50.986;5.826;2023-04-16T18:48:12;101834.91;;;19.28;45.04
26563;BME280;14217;50.986;5.826;2023-04-16T18:53:14;101835.75;;;19.30;44.51
26563;BME280;14217;50.986;5.826;2023-04-16T18:58:16;101834.03;;;19.29;44.78
26563;BME280;14217;50.986;5.826;2023-04-16T19:03:19;101842.91;;;19.28;44.74
26563;BME280;14217;50.986;5.826;2023-04-16T19:08:21;101847.31;;;19.29;44.34
26563;BME280;14217;50.986;5.826;2023-04-16T19:13:23;101846.38;;;19.30;44.51
26563;BME280;14217;50.986;5.826;2023-04-16T19:18:26;101853.50;;;19.30;44.10
26563;BME280;14217;50.986;5.826;2023-04-16T19:23:28;101857.00;;;19.30;44.29
26563;BME280;14217;50.986;5.826;2023-04-16T19:28:30;101850.94;;;19.27;44.22
26563;BME280;14217;50.986;5.826;2023-04-16T19:33:32;101850.88;;;19.28;44.02
26563;BME280;14217;50.986;5.826;2023-04-16T19:38:35;101857.13;;;19.27;44.42
26563;BME280;14217;50.986;5.826;2023-04-16T19:43:37;101855.47;;;19.23;44.06
26563;BME280;14217;50.986;5.826;2023-04-16T19:48:39;101858.56;;;19.38;44.66
26563;BME280;14217;50.986;5.826;2023-04-16T19:53:41;101861.06;;;19.42;44.32
26563;BME280;14217;50.986;5.826;2023-04-16T19:58:43;101862.16;;;19.35;44.92
26563;BME280;14217;50.986;5.826;2023-04-16T20:03:46;101864.06;;;19.32;44.73
26563;BME280;14217;50.986;5.826;2023-04-16T20:08:48;101863.13;;;19.33;44.75
26563;BME280;14217;50.986;5.826;2023-04-16T20:13:50;101867.44;;;19.37;45.13
26563;BME280;14217;50.986;5.826;2023-04-16T20:18:52;101874.59;;;19.35;45.06
26563;BME280;14217;50.986;5.826;2023-04-16T20:23:55;101856.09;;;19.32;44.74
26563;BME280;14217;50.986;5.826;2023-04-16T20:28:56;101873.81;;;19.31;44.89
26563;BME280;14217;50.986;5.826;2023-04-16T20:33:59;101879.22;;;19.28;44.79
26563;BME280;14217;50.986;5.826;2023-04-16T20:39:01;101873.81;;;19.31;44.41
26563;BME280;14217;50.986;5.826;2023-04-16T20:44:03;101869.25;;;19.36;48.44
26563;BME280;14217;50.986;5.826;2023-04-16T20:49:06;101868.41;;;19.34;47.66
26563;BME280;14217;50.986;5.826;2023-04-16T20:54:09;101868.44;;;19.33;47.13
26563;BME280;14217;50.986;5.826;2023-04-16T20:59:11;101873.03;;;19.56;46.25
26563;BME280;14217;50.986;5.826;2023-04-16T21:04:14;101867.72;;;19.56;45.76
26563;BME280;14217;50.986;5.826;2023-04-16T21:09:16;101873.91;;;19.56;45.66
26563;BME280;14217;50.986;5.826;2023-04-16T21:14:18;101873.91;;;19.56;45.38
26563;BME280;14217;50.986;5.826;2023-04-16T21:19:20;101870.56;;;19.49;45.67
26563;BME280;14217;50.986;5.826;2023-04-16T21:24:23;101860.91;;;19.47;45.55
26563;BME280;14217;50.986;5.826;2023-04-16T21:29:25;101866.34;;;19.44;45.60
26563;BME280;14217;50.986;5.826;2023-04-16T21:34:28;101861.16;;;19.39;45.68
26563;BME280;14217;50.986;5.826;2023-04-16T21:39:30;101867.38;;;19.40;45.19
26563;BME280;14217;50.986;5.826;2023-04-16T21:44:32;101863.91;;;19.36;45.37
26563;BME280;14217;50.986;5.826;2023-04-16T21:49:34;101858.56;;;19.38;45.25
26563;BME280;14217;50.986;5.826;2023-04-16T21:54:36;101866.63;;;19.35;44.98
26563;BME280;14217;50.986;5.826;2023-04-16T21:59:38;101857.78;;;19.34;45.07
26563;BME280;14217;50.986;5.826;2023-04-16T22:04:40;101865.72;;;19.36;44.86
26563;BME280;14217;50.986;5.826;2023-04-16T22:09:42;101859.63;;;19.32;44.74
26563;BME280;14217;50.986;5.826;2023-04-16T22:14:44;101858.66;;;19.35;44.75
26563;BME280;14217;50.986;5.826;2023-04-16T22:20:03;101851.59;;;19.34;44.63
26563;BME280;14217;50.986;5.826;2023-04-16T22:25:13;101852.47;;;19.34;44.38
26563;BME280;14217;50.986;5.826;2023-04-16T22:30:16;101847.03;;;19.37;44.13
26563;BME280;14217;50.986;5.826;2023-04-16T22:35:18;101849.84;;;19.33;44.14
26563;BME280;14217;50.986;5.826;2023-04-16T22:40:20;101847.16;;;19.34;44.09
26563;BME280;14217;50.986;5.826;2023-04-16T22:45:22;101846.38;;;19.30;44.29
26563;BME280;14217;50.986;5.826;2023-04-16T22:50:24;101840.97;;;19.34;44.24
26563;BME280;14217;50.986;5.826;2023-04-16T22:55:26;101848.22;;;19.28;44.30
26563;BME280;14217;50.986;5.826;2023-04-16T23:00:28;101840.03;;;19.35;44.10
26563;BME280;14217;50.986;5.826;2023-04-16T23:05:30;101840.19;;;19.30;44.25
26563;BME280;14217;50.986;5.826;2023-04-16T23:10:32;101838.31;;;19.34;43.74
26563;BME280;14217;50.986;5.826;2023-04-16T23:15:35;101844.53;;;19.33;43.74
26563;BME280;14217;50.986;5.826;2023-04-16T23:20:37;101847.22;;;19.31;44.07
26563;BME280;14217;50.986;5.826;2023-04-16T23:25:40;101848.13;;;19.32;43.84
26563;BME280;14217;50.986;5.826;2023-04-16T23:30:42;101849.97;;;19.29;43.69
26563;BME280;14217;50.986;5.826;2023-04-16T23:35:45;101860.59;;;19.29;43.86
26563;BME280;14217;50.986;5.826;2023-04-16T23:40:48;101861.47;;;19.30;43.99
26563;BME280;14217;50.986;5.826;2023-04-16T23:45:50;101859.66;;;19.30;43.62
26563;BME280;14217;50.986;5.826;2023-04-16T23:50:52;101852.56;;;19.31;44.01
26563;BME280;14217;50.986;5.826;2023-04-16T23:55:54;101846.34;;;19.32;43.88
